EWG32B EDDS-EDDW
Flight info
| Callsign | EWG32B |
|---|---|
| Flight time | 0h 53m |
| Altitude | 36000 |
| Route | OKIBA4B OKIBA N851 RIMKI Z99 LOHRE DCT MASEK DCT ELNAT P605 NORTA Z595 NIE Z88 VERED VERED3P |
| Aircraft | A319/M-SDE3FGHIRWY/LB1 |
Departure
| Time | 2026-05-06 13:37 |
|---|---|
| Airport | Stuttgart Airport (EDDS) |
Arrival
| Time | 2026-05-06 14:30 |
|---|---|
| Airport | Bremen Airport (EDDW) |
| Time | Latitude | Longitude | Altitude | Speed | Heading |
|---|---|---|---|---|---|
| 2026-05-06 13:15 | 48.68885 | 9.19358 | 1315 ft | 0 kts | 344° |
| 2026-05-06 13:25 | 48.68864 | 9.19368 | 1315 ft | 4 kts | 344° |
| 2026-05-06 13:25 | 48.68841 | 9.19378 | 1315 ft | 2 kts | 344° |
| 2026-05-06 13:25 | 48.68818 | 9.19382 | 1314 ft | 4 kts | 24° |
| 2026-05-06 13:26 | 48.68802 | 9.19357 | 1314 ft | 4 kts | 72° |
| 2026-05-06 13:26 | 48.68799 | 9.19344 | 1314 ft | 0 kts | 74° |
| 2026-05-06 13:28 | 48.68801 | 9.19352 | 1314 ft | 3 kts | 74° |
| 2026-05-06 13:29 | 48.68812 | 9.19411 | 1303 ft | 9 kts | 74° |
| 2026-05-06 13:29 | 48.68834 | 9.19526 | 1311 ft | 14 kts | 74° |
| 2026-05-06 13:29 | 48.68866 | 9.19694 | 1308 ft | 14 kts | 74° |
| 2026-05-06 13:29 | 48.68885 | 9.19801 | 1305 ft | 12 kts | 75° |
| 2026-05-06 13:30 | 48.68871 | 9.19872 | 1302 ft | 11 kts | 143° |
| 2026-05-06 13:30 | 48.68811 | 9.19938 | 1296 ft | 12 kts | 99° |
| 2026-05-06 13:30 | 48.68849 | 9.20091 | 1293 ft | 19 kts | 72° |
| 2026-05-06 13:30 | 48.68893 | 9.20321 | 1288 ft | 27 kts | 73° |
| 2026-05-06 13:31 | 48.68941 | 9.20573 | 1281 ft | 19 kts | 75° |
| 2026-05-06 13:31 | 48.68969 | 9.20723 | 1278 ft | 17 kts | 74° |
| 2026-05-06 13:31 | 48.69009 | 9.20935 | 1273 ft | 25 kts | 74° |
| 2026-05-06 13:31 | 48.69064 | 9.21218 | 1273 ft | 23 kts | 75° |
| 2026-05-06 13:32 | 48.69088 | 9.21359 | 1263 ft | 14 kts | 75° |
| 2026-05-06 13:32 | 48.69119 | 9.21518 | 1259 ft | 17 kts | 72° |
| 2026-05-06 13:32 | 48.69157 | 9.21711 | 1258 ft | 21 kts | 73° |
| 2026-05-06 13:32 | 48.69200 | 9.21938 | 1249 ft | 25 kts | 74° |
| 2026-05-06 13:33 | 48.69251 | 9.22208 | 1254 ft | 28 kts | 74° |
| 2026-05-06 13:33 | 48.69302 | 9.22478 | 1237 ft | 11 kts | 74° |
| 2026-05-06 13:33 | 48.69327 | 9.22610 | 1240 ft | 15 kts | 73° |
| 2026-05-06 13:33 | 48.69359 | 9.22777 | 1230 ft | 19 kts | 74° |
| 2026-05-06 13:34 | 48.69398 | 9.22984 | 1226 ft | 23 kts | 74° |
| 2026-05-06 13:34 | 48.69446 | 9.23236 | 1221 ft | 27 kts | 74° |
| 2026-05-06 13:34 | 48.69500 | 9.23524 | 1215 ft | 16 kts | 74° |
| 2026-05-06 13:34 | 48.69530 | 9.23681 | 1212 ft | 19 kts | 74° |
| 2026-05-06 13:35 | 48.69572 | 9.23902 | 1207 ft | 25 kts | 73° |
| 2026-05-06 13:35 | 48.69610 | 9.24133 | 1201 ft | 18 kts | 88° |
| 2026-05-06 13:35 | 48.69565 | 9.24269 | 1195 ft | 13 kts | 123° |
| 2026-05-06 13:35 | 48.69466 | 9.24328 | 1190 ft | 20 kts | 161° |
| 2026-05-06 13:36 | 48.69428 | 9.24347 | 1190 ft | 3 kts | 162° |
| 2026-05-06 13:36 | 48.69396 | 9.24333 | 1191 ft | 7 kts | 226° |
| 2026-05-06 13:36 | 48.69381 | 9.24269 | 1192 ft | 0 kts | 254° |
| 2026-05-06 13:36 | 48.69381 | 9.24268 | 1192 ft | 2 kts | 254° |
| 2026-05-06 13:37 | 48.69312 | 9.23905 | 1199 ft | 73 kts | 254° |
| 2026-05-06 13:37 | 48.69111 | 9.22846 | 1223 ft | 135 kts | 254° |
| 2026-05-06 13:37 | 48.68826 | 9.21430 | 1787 ft | 139 kts | 255° |
| 2026-05-06 13:37 | 48.68564 | 9.20015 | 2527 ft | 143 kts | 256° |
| 2026-05-06 13:38 | 48.68287 | 9.18431 | 2976 ft | 167 kts | 256° |
| 2026-05-06 13:38 | 48.67981 | 9.16626 | 3509 ft | 188 kts | 256° |
| 2026-05-06 13:38 | 48.67640 | 9.14595 | 4016 ft | 209 kts | 256° |
| 2026-05-06 13:38 | 48.67258 | 9.12346 | 4613 ft | 233 kts | 256° |
| 2026-05-06 13:39 | 48.66851 | 9.09855 | 5375 ft | 252 kts | 256° |
| 2026-05-06 13:39 | 48.66432 | 9.07226 | 6397 ft | 262 kts | 256° |
| 2026-05-06 13:39 | 48.66142 | 9.04468 | 7362 ft | 271 kts | 271° |
| 2026-05-06 13:39 | 48.66654 | 9.01712 | 8391 ft | 279 kts | 298° |
| 2026-05-06 13:40 | 48.67980 | 8.99525 | 9415 ft | 289 kts | 324° |
| 2026-05-06 13:40 | 48.69868 | 8.98369 | 10173 ft | 305 kts | 349° |
| 2026-05-06 13:40 | 48.72068 | 8.98302 | 10663 ft | 325 kts | 3° |
| 2026-05-06 13:40 | 48.74347 | 8.98538 | 11406 ft | 332 kts | 4° |
| 2026-05-06 13:41 | 48.76674 | 8.98433 | 12212 ft | 336 kts | 352° |
| 2026-05-06 13:41 | 48.78988 | 8.97845 | 13044 ft | 340 kts | 349° |
| 2026-05-06 13:41 | 48.81312 | 8.97205 | 13803 ft | 345 kts | 350° |
| 2026-05-06 13:41 | 48.83731 | 8.97131 | 14478 ft | 351 kts | 9° |
| 2026-05-06 13:42 | 48.86099 | 8.98100 | 15192 ft | 356 kts | 17° |
| 2026-05-06 13:42 | 48.88478 | 8.99227 | 15901 ft | 360 kts | 17° |
| 2026-05-06 13:42 | 48.90855 | 9.00370 | 16584 ft | 365 kts | 18° |
| 2026-05-06 13:42 | 48.93287 | 9.01545 | 17247 ft | 369 kts | 17° |
| 2026-05-06 13:43 | 48.95758 | 9.02735 | 17913 ft | 374 kts | 17° |
| 2026-05-06 13:43 | 48.98239 | 9.03913 | 18512 ft | 379 kts | 16° |
| 2026-05-06 13:43 | 49.00785 | 9.05037 | 19128 ft | 382 kts | 15° |
| 2026-05-06 13:43 | 49.03360 | 9.06113 | 19781 ft | 386 kts | 14° |
| 2026-05-06 13:44 | 49.05969 | 9.07177 | 20466 ft | 390 kts | 14° |
| 2026-05-06 13:44 | 49.08595 | 9.08247 | 21143 ft | 393 kts | 14° |
| 2026-05-06 13:44 | 49.11254 | 9.09337 | 21765 ft | 397 kts | 14° |
| 2026-05-06 13:44 | 49.13928 | 9.10448 | 22357 ft | 400 kts | 15° |
| 2026-05-06 13:45 | 49.16576 | 9.11567 | 22932 ft | 403 kts | 15° |
| 2026-05-06 13:45 | 49.22038 | 9.13895 | 24007 ft | 410 kts | 15° |
| 2026-05-06 13:45 | 49.24797 | 9.15071 | 24590 ft | 414 kts | 15° |
| 2026-05-06 13:46 | 49.27578 | 9.16254 | 25182 ft | 417 kts | 15° |
| 2026-05-06 13:46 | 49.30351 | 9.17437 | 25704 ft | 420 kts | 15° |
| 2026-05-06 13:46 | 49.33059 | 9.18593 | 26175 ft | 423 kts | 15° |
| 2026-05-06 13:46 | 49.35908 | 9.19810 | 26659 ft | 426 kts | 15° |
| 2026-05-06 13:47 | 49.38775 | 9.21036 | 27135 ft | 430 kts | 15° |
| 2026-05-06 13:47 | 49.41628 | 9.22251 | 27606 ft | 432 kts | 15° |
| 2026-05-06 13:47 | 49.44574 | 9.23496 | 28070 ft | 436 kts | 15° |
| 2026-05-06 13:47 | 49.47511 | 9.24733 | 28527 ft | 439 kts | 15° |
| 2026-05-06 13:48 | 49.50446 | 9.25969 | 28984 ft | 442 kts | 15° |
| 2026-05-06 13:48 | 49.53421 | 9.27224 | 29448 ft | 445 kts | 15° |
| 2026-05-06 13:48 | 49.56400 | 9.28484 | 29912 ft | 448 kts | 15° |
| 2026-05-06 13:48 | 49.59418 | 9.29764 | 30300 ft | 452 kts | 15° |
| 2026-05-06 13:49 | 49.62466 | 9.31061 | 30645 ft | 457 kts | 15° |
| 2026-05-06 13:49 | 49.65541 | 9.32377 | 31001 ft | 461 kts | 15° |
| 2026-05-06 13:49 | 49.68608 | 9.33693 | 31352 ft | 464 kts | 15° |
| 2026-05-06 13:49 | 49.71724 | 9.35030 | 31838 ft | 464 kts | 14° |
| 2026-05-06 13:50 | 49.74842 | 9.36365 | 32336 ft | 465 kts | 14° |
| 2026-05-06 13:50 | 49.76910 | 9.37231 | 32660 ft | 465 kts | 13° |
| 2026-05-06 13:50 | 49.80049 | 9.38477 | 33152 ft | 466 kts | 12° |
| 2026-05-06 13:50 | 49.84222 | 9.40049 | 33835 ft | 465 kts | 11° |
| 2026-05-06 13:51 | 49.87367 | 9.41212 | 34283 ft | 464 kts | 11° |
| 2026-05-06 13:51 | 49.90512 | 9.42384 | 34713 ft | 464 kts | 12° |
| 2026-05-06 13:51 | 49.92628 | 9.43182 | 34956 ft | 464 kts | 12° |
| 2026-05-06 13:51 | 49.95689 | 9.44349 | 35187 ft | 463 kts | 12° |
| 2026-05-06 13:52 | 49.98858 | 9.45568 | 35435 ft | 463 kts | 12° |
| 2026-05-06 13:52 | 50.01980 | 9.46776 | 35670 ft | 462 kts | 12° |
| 2026-05-06 13:52 | 50.08104 | 9.48874 | 35762 ft | 450 kts | 4° |
| 2026-05-06 13:53 | 50.14299 | 9.49911 | 35755 ft | 446 kts | 4° |
| 2026-05-06 13:53 | 50.20460 | 9.50939 | 35756 ft | 445 kts | 4° |
| 2026-05-06 13:54 | 50.26458 | 9.51938 | 35757 ft | 445 kts | 4° |
| 2026-05-06 13:54 | 50.32622 | 9.52983 | 35744 ft | 446 kts | 4° |
| 2026-05-06 13:55 | 50.38779 | 9.54029 | 35742 ft | 445 kts | 4° |
| 2026-05-06 13:55 | 50.44935 | 9.55068 | 35735 ft | 445 kts | 4° |
| 2026-05-06 13:56 | 50.51057 | 9.56098 | 35743 ft | 445 kts | 4° |
| 2026-05-06 13:56 | 50.57205 | 9.57136 | 35745 ft | 444 kts | 4° |
| 2026-05-06 13:57 | 50.63337 | 9.58184 | 35741 ft | 443 kts | 4° |
| 2026-05-06 13:57 | 50.69461 | 9.59231 | 35738 ft | 442 kts | 4° |
| 2026-05-06 13:58 | 50.75580 | 9.60293 | 35735 ft | 442 kts | 4° |
| 2026-05-06 13:58 | 50.81700 | 9.61480 | 35732 ft | 442 kts | 5° |
| 2026-05-06 13:59 | 50.84768 | 9.62094 | 35394 ft | 446 kts | 5° |
| 2026-05-06 13:59 | 50.87846 | 9.62710 | 35005 ft | 448 kts | 5° |
| 2026-05-06 13:59 | 50.90792 | 9.63292 | 34636 ft | 450 kts | 5° |
| 2026-05-06 13:59 | 50.94053 | 9.63932 | 34251 ft | 451 kts | 5° |
| 2026-05-06 14:00 | 50.97173 | 9.64540 | 33877 ft | 452 kts | 4° |
| 2026-05-06 14:00 | 51.00258 | 9.65140 | 33465 ft | 453 kts | 4° |
| 2026-05-06 14:00 | 51.03423 | 9.65759 | 33018 ft | 453 kts | 4° |
| 2026-05-06 14:00 | 51.06516 | 9.66369 | 32597 ft | 453 kts | 5° |
| 2026-05-06 14:01 | 51.09648 | 9.66950 | 32168 ft | 452 kts | 1° |
| 2026-05-06 14:01 | 51.12754 | 9.66691 | 31865 ft | 443 kts | 347° |
| 2026-05-06 14:01 | 51.15787 | 9.65938 | 31605 ft | 439 kts | 347° |
| 2026-05-06 14:01 | 51.18801 | 9.65189 | 31363 ft | 435 kts | 347° |
| 2026-05-06 14:02 | 51.21785 | 9.64468 | 31106 ft | 432 kts | 348° |
| 2026-05-06 14:02 | 51.24752 | 9.63841 | 30854 ft | 428 kts | 349° |
| 2026-05-06 14:02 | 51.27700 | 9.63284 | 30606 ft | 424 kts | 350° |
| 2026-05-06 14:02 | 51.30620 | 9.62765 | 30359 ft | 420 kts | 350° |
| 2026-05-06 14:03 | 51.33520 | 9.62249 | 30132 ft | 418 kts | 350° |
| 2026-05-06 14:03 | 51.36400 | 9.61727 | 29890 ft | 415 kts | 350° |
| 2026-05-06 14:03 | 51.39264 | 9.61190 | 29618 ft | 413 kts | 349° |
| 2026-05-06 14:03 | 51.42100 | 9.60644 | 29356 ft | 410 kts | 351° |
| 2026-05-06 14:04 | 51.44916 | 9.60090 | 29069 ft | 406 kts | 352° |
| 2026-05-06 14:04 | 51.47700 | 9.59537 | 28790 ft | 402 kts | 352° |
| 2026-05-06 14:04 | 51.50463 | 9.58987 | 28507 ft | 398 kts | 352° |
| 2026-05-06 14:04 | 51.53172 | 9.58453 | 28232 ft | 395 kts | 352° |
| 2026-05-06 14:05 | 51.55891 | 9.57921 | 27956 ft | 392 kts | 352° |
| 2026-05-06 14:05 | 51.58595 | 9.57395 | 27682 ft | 390 kts | 352° |
| 2026-05-06 14:05 | 51.61285 | 9.56875 | 27414 ft | 388 kts | 352° |
| 2026-05-06 14:05 | 51.63952 | 9.56359 | 27140 ft | 386 kts | 352° |
| 2026-05-06 14:06 | 51.66613 | 9.55843 | 26898 ft | 384 kts | 352° |
| 2026-05-06 14:06 | 51.69252 | 9.55325 | 26638 ft | 381 kts | 352° |
| 2026-05-06 14:06 | 51.71871 | 9.54809 | 26382 ft | 378 kts | 352° |
| 2026-05-06 14:06 | 51.74474 | 9.54294 | 26127 ft | 375 kts | 352° |
| 2026-05-06 14:07 | 51.77040 | 9.53783 | 25870 ft | 373 kts | 351° |
| 2026-05-06 14:07 | 51.79594 | 9.53274 | 25619 ft | 371 kts | 351° |
| 2026-05-06 14:07 | 51.82155 | 9.52767 | 25371 ft | 370 kts | 351° |
| 2026-05-06 14:07 | 51.84688 | 9.52266 | 25128 ft | 368 kts | 351° |
| 2026-05-06 14:08 | 51.87226 | 9.51762 | 24883 ft | 367 kts | 351° |
| 2026-05-06 14:08 | 51.89747 | 9.51260 | 24636 ft | 366 kts | 351° |
| 2026-05-06 14:08 | 51.92268 | 9.50759 | 24410 ft | 365 kts | 351° |
| 2026-05-06 14:08 | 51.94781 | 9.50263 | 24171 ft | 363 kts | 351° |
| 2026-05-06 14:09 | 51.97287 | 9.49767 | 23929 ft | 362 kts | 351° |
| 2026-05-06 14:09 | 51.99788 | 9.49268 | 23692 ft | 361 kts | 351° |
| 2026-05-06 14:09 | 52.02274 | 9.48772 | 23465 ft | 360 kts | 351° |
| 2026-05-06 14:09 | 52.04752 | 9.48280 | 23203 ft | 359 kts | 351° |
| 2026-05-06 14:10 | 52.07225 | 9.47790 | 22931 ft | 358 kts | 351° |
| 2026-05-06 14:10 | 52.09663 | 9.47303 | 22662 ft | 357 kts | 351° |
| 2026-05-06 14:10 | 52.12122 | 9.46821 | 22395 ft | 356 kts | 351° |
| 2026-05-06 14:10 | 52.14540 | 9.46047 | 22125 ft | 352 kts | 338° |
| 2026-05-06 14:11 | 52.16665 | 9.44185 | 21790 ft | 346 kts | 321° |
| 2026-05-06 14:11 | 52.18572 | 9.41790 | 21348 ft | 347 kts | 319° |
| 2026-05-06 14:11 | 52.20473 | 9.39364 | 20911 ft | 348 kts | 319° |
| 2026-05-06 14:11 | 52.22385 | 9.36913 | 20477 ft | 349 kts | 319° |
| 2026-05-06 14:12 | 52.24295 | 9.34461 | 20024 ft | 351 kts | 319° |
| 2026-05-06 14:12 | 52.26220 | 9.31994 | 19589 ft | 353 kts | 319° |
| 2026-05-06 14:12 | 52.28157 | 9.29515 | 19168 ft | 354 kts | 319° |
| 2026-05-06 14:12 | 52.30092 | 9.27043 | 18844 ft | 352 kts | 319° |
| 2026-05-06 14:13 | 52.32013 | 9.24588 | 18533 ft | 349 kts | 318° |
| 2026-05-06 14:13 | 52.33918 | 9.22148 | 18223 ft | 346 kts | 318° |
| 2026-05-06 14:13 | 52.35797 | 9.19732 | 17885 ft | 342 kts | 318° |
| 2026-05-06 14:13 | 52.37660 | 9.17326 | 17533 ft | 339 kts | 318° |
| 2026-05-06 14:14 | 52.39501 | 9.14943 | 17178 ft | 336 kts | 318° |
| 2026-05-06 14:14 | 52.41328 | 9.12580 | 16845 ft | 333 kts | 317° |
| 2026-05-06 14:14 | 52.43142 | 9.10230 | 16504 ft | 331 kts | 318° |
| 2026-05-06 14:14 | 52.44949 | 9.07887 | 16128 ft | 331 kts | 318° |
| 2026-05-06 14:15 | 52.46754 | 9.05547 | 15744 ft | 330 kts | 318° |
| 2026-05-06 14:15 | 52.48559 | 9.03205 | 15365 ft | 330 kts | 318° |
| 2026-05-06 14:15 | 52.50360 | 9.00865 | 14994 ft | 330 kts | 318° |
| 2026-05-06 14:15 | 52.52162 | 8.98526 | 14643 ft | 330 kts | 319° |
| 2026-05-06 14:16 | 52.53964 | 8.96187 | 14279 ft | 330 kts | 319° |
| 2026-05-06 14:16 | 52.55771 | 8.93838 | 13922 ft | 332 kts | 319° |
| 2026-05-06 14:16 | 52.57558 | 8.91510 | 13559 ft | 333 kts | 319° |
| 2026-05-06 14:16 | 52.59372 | 8.89143 | 13152 ft | 332 kts | 319° |
| 2026-05-06 14:17 | 52.61179 | 8.86784 | 12757 ft | 330 kts | 319° |
| 2026-05-06 14:17 | 52.62973 | 8.84443 | 12366 ft | 328 kts | 319° |
| 2026-05-06 14:17 | 52.64758 | 8.82112 | 11985 ft | 327 kts | 319° |
| 2026-05-06 14:17 | 52.66532 | 8.79788 | 11617 ft | 325 kts | 320° |
| 2026-05-06 14:18 | 52.68289 | 8.77484 | 11255 ft | 318 kts | 320° |
| 2026-05-06 14:18 | 52.70010 | 8.75226 | 10874 ft | 313 kts | 322° |
| 2026-05-06 14:18 | 52.71701 | 8.73004 | 10504 ft | 308 kts | 322° |
| 2026-05-06 14:18 | 52.73362 | 8.70818 | 10133 ft | 303 kts | 322° |
| 2026-05-06 14:19 | 52.74994 | 8.68668 | 9837 ft | 298 kts | 322° |
| 2026-05-06 14:19 | 52.76590 | 8.66565 | 9438 ft | 296 kts | 323° |
| 2026-05-06 14:19 | 52.78188 | 8.64457 | 9040 ft | 292 kts | 322° |
| 2026-05-06 14:19 | 52.79771 | 8.62368 | 8603 ft | 291 kts | 323° |
| 2026-05-06 14:20 | 52.81349 | 8.60277 | 8195 ft | 289 kts | 323° |
| 2026-05-06 14:20 | 52.82906 | 8.58209 | 7841 ft | 285 kts | 324° |
| 2026-05-06 14:20 | 52.84440 | 8.56169 | 7523 ft | 280 kts | 324° |
| 2026-05-06 14:20 | 52.85949 | 8.54164 | 7078 ft | 277 kts | 324° |
| 2026-05-06 14:21 | 52.87444 | 8.52165 | 6613 ft | 276 kts | 324° |
| 2026-05-06 14:21 | 52.88933 | 8.50171 | 6139 ft | 275 kts | 324° |
| 2026-05-06 14:21 | 52.90415 | 8.48179 | 5648 ft | 273 kts | 324° |
| 2026-05-06 14:21 | 52.91885 | 8.46190 | 5186 ft | 271 kts | 324° |
| 2026-05-06 14:22 | 52.93330 | 8.44219 | 4763 ft | 268 kts | 324° |
| 2026-05-06 14:22 | 52.94755 | 8.42260 | 4337 ft | 264 kts | 324° |
| 2026-05-06 14:22 | 52.96127 | 8.40350 | 4193 ft | 251 kts | 324° |
| 2026-05-06 14:22 | 52.97423 | 8.38527 | 4062 ft | 238 kts | 324° |
| 2026-05-06 14:23 | 52.98650 | 8.36783 | 3932 ft | 227 kts | 324° |
| 2026-05-06 14:23 | 52.99811 | 8.35111 | 3802 ft | 215 kts | 324° |
| 2026-05-06 14:23 | 53.00933 | 8.33529 | 3650 ft | 208 kts | 330° |
| 2026-05-06 14:23 | 53.02243 | 8.32885 | 3479 ft | 192 kts | 12° |
| 2026-05-06 14:24 | 53.03311 | 8.33959 | 3330 ft | 181 kts | 59° |
| 2026-05-06 14:24 | 53.03571 | 8.35978 | 3144 ft | 182 kts | 86° |
| 2026-05-06 14:24 | 53.03655 | 8.38083 | 3033 ft | 183 kts | 83° |
| 2026-05-06 14:24 | 53.03730 | 8.40198 | 3003 ft | 184 kts | 84° |
| 2026-05-06 14:25 | 53.03791 | 8.42294 | 2998 ft | 184 kts | 84° |
| 2026-05-06 14:25 | 53.03848 | 8.44415 | 3004 ft | 183 kts | 84° |
| 2026-05-06 14:25 | 53.03904 | 8.46525 | 3006 ft | 183 kts | 84° |
| 2026-05-06 14:25 | 53.03958 | 8.48642 | 3006 ft | 183 kts | 84° |
| 2026-05-06 14:26 | 53.04012 | 8.50751 | 3004 ft | 183 kts | 84° |
| 2026-05-06 14:26 | 53.04065 | 8.52868 | 2948 ft | 182 kts | 84° |
| 2026-05-06 14:26 | 53.04115 | 8.54904 | 2746 ft | 172 kts | 84° |
| 2026-05-06 14:26 | 53.04169 | 8.56887 | 2485 ft | 171 kts | 83° |
| 2026-05-06 14:27 | 53.04224 | 8.58837 | 2247 ft | 167 kts | 84° |
| 2026-05-06 14:27 | 53.04270 | 8.60742 | 2045 ft | 162 kts | 83° |
| 2026-05-06 14:27 | 53.04309 | 8.62541 | 1821 ft | 150 kts | 83° |
| 2026-05-06 14:27 | 53.04353 | 8.64115 | 1650 ft | 124 kts | 82° |
| 2026-05-06 14:28 | 53.04387 | 8.65471 | 1469 ft | 114 kts | 82° |
| 2026-05-06 14:28 | 53.04426 | 8.66761 | 1355 ft | 111 kts | 82° |
| 2026-05-06 14:28 | 53.04450 | 8.68057 | 1231 ft | 114 kts | 81° |
| 2026-05-06 14:28 | 53.04481 | 8.69387 | 1088 ft | 117 kts | 83° |
| 2026-05-06 14:29 | 53.04502 | 8.70737 | 889 ft | 119 kts | 83° |
| 2026-05-06 14:29 | 53.04550 | 8.72124 | 739 ft | 119 kts | 83° |
| 2026-05-06 14:29 | 53.04572 | 8.73465 | 548 ft | 115 kts | 84° |
| 2026-05-06 14:29 | 53.04608 | 8.74787 | 377 ft | 118 kts | 85° |
| 2026-05-06 14:30 | 53.04630 | 8.76141 | 232 ft | 116 kts | 85° |
| 2026-05-06 14:30 | 53.04654 | 8.77464 | 52 ft | 114 kts | 85° |
| 2026-05-06 14:30 | 53.04684 | 8.78635 | 23 ft | 77 kts | 89° |
| 2026-05-06 14:30 | 53.04694 | 8.79138 | 22 ft | 24 kts | 88° |
| 2026-05-06 14:31 | 53.04747 | 8.79302 | 21 ft | 13 kts | 11° |
| 2026-05-06 14:31 | 53.04816 | 8.79296 | 23 ft | 5 kts | 356° |
| 2026-05-06 14:31 | 53.04832 | 8.79294 | 23 ft | 4 kts | 355° |
| 2026-05-06 14:31 | 53.04864 | 8.79244 | 25 ft | 10 kts | 284° |
| 2026-05-06 14:32 | 53.04859 | 8.79087 | 23 ft | 17 kts | 266° |
| 2026-05-06 14:32 | 53.04856 | 8.78875 | 20 ft | 18 kts | 266° |
| 2026-05-06 14:32 | 53.04880 | 8.78675 | 22 ft | 14 kts | 327° |
| 2026-05-06 14:32 | 53.04986 | 8.78638 | 23 ft | 17 kts | 335° |
| 2026-05-06 14:33 | 53.05049 | 8.78553 | 22 ft | 9 kts | 319° |
| 2026-05-06 14:33 | 53.05093 | 8.78523 | 22 ft | 8 kts | 22° |
| 2026-05-06 14:33 | 53.05128 | 8.78582 | 22 ft | 4 kts | 46° |
| 2026-05-06 14:33 | 53.05137 | 8.78598 | 22 ft | 0 kts | 45° |